sensor_id;sensor_type;location;lat;lon;timestamp;temperature;humidity
75495;DHT22;64072;51.466;7.260;2022-10-16T00:00:44;24.20;49.90
75495;DHT22;64072;51.466;7.260;2022-10-16T00:03:10;24.20;49.90
75495;DHT22;64072;51.466;7.260;2022-10-16T00:05:41;24.20;49.90
75495;DHT22;64072;51.466;7.260;2022-10-16T00:08:08;24.20;49.90
75495;DHT22;64072;51.466;7.260;2022-10-16T00:10:35;24.20;50.00
75495;DHT22;64072;51.466;7.260;2022-10-16T00:13:00;24.20;49.90
75495;DHT22;64072;51.466;7.260;2022-10-16T00:15:26;24.20;49.90
75495;DHT22;64072;51.466;7.260;2022-10-16T00:17:52;24.20;49.90
75495;DHT22;64072;51.466;7.260;2022-10-16T00:20:17;24.20;49.90
75495;DHT22;64072;51.466;7.260;2022-10-16T00:22:43;24.20;49.90
75495;DHT22;64072;51.466;7.260;2022-10-16T00:25:08;24.20;49.90
75495;DHT22;64072;51.466;7.260;2022-10-16T00:27:34;24.20;49.90
75495;DHT22;64072;51.466;7.260;2022-10-16T00:30:00;24.20;49.90
75495;DHT22;64072;51.466;7.260;2022-10-16T00:32:26;24.10;50.00
75495;DHT22;64072;51.466;7.260;2022-10-16T00:34:51;24.10;50.00
75495;DHT22;64072;51.466;7.260;2022-10-16T00:37:20;24.10;50.00
75495;DHT22;64072;51.466;7.260;2022-10-16T00:39:45;24.10;50.00
75495;DHT22;64072;51.466;7.260;2022-10-16T00:42:16;24.10;50.00
75495;DHT22;64072;51.466;7.260;2022-10-16T00:45:08;24.10;50.10
75495;DHT22;64072;51.466;7.260;2022-10-16T00:47:43;24.10;50.10
75495;DHT22;64072;51.466;7.260;2022-10-16T00:50:32;24.00;50.20
75495;DHT22;64072;51.466;7.260;2022-10-16T00:52:59;24.00;50.20
75495;DHT22;64072;51.466;7.260;2022-10-16T00:55:26;24.00;50.20
75495;DHT22;64072;51.466;7.260;2022-10-16T00:57:54;24.00;50.20
75495;DHT22;64072;51.466;7.260;2022-10-16T01:00:26;24.00;50.20
75495;DHT22;64072;51.466;7.260;2022-10-16T01:03:02;24.00;50.20
75495;DHT22;64072;51.466;7.260;2022-10-16T01:05:35;24.00;50.10
75495;DHT22;64072;51.466;7.260;2022-10-16T01:08:18;24.00;50.10
75495;DHT22;64072;51.466;7.260;2022-10-16T01:11:22;24.10;50.00
75495;DHT22;64072;51.466;7.260;2022-10-16T01:13:56;24.10;50.00
75495;DHT22;64072;51.466;7.260;2022-10-16T01:16:40;24.10;50.00
75495;DHT22;64072;51.466;7.260;2022-10-16T01:22:04;24.10;50.00
75495;DHT22;64072;51.466;7.260;2022-10-16T01:24:40;24.10;49.90
75495;DHT22;64072;51.466;7.260;2022-10-16T01:27:14;24.10;49.90
75495;DHT22;64072;51.466;7.260;2022-10-16T01:32:50;24.20;49.70
75495;DHT22;64072;51.466;7.260;2022-10-16T01:35:26;24.20;49.70
75495;DHT22;64072;51.466;7.260;2022-10-16T01:38:03;24.20;49.70
75495;DHT22;64072;51.466;7.260;2022-10-16T01:40:32;24.20;49.60
75495;DHT22;64072;51.466;7.260;2022-10-16T01:43:02;24.20;49.60
75495;DHT22;64072;51.466;7.260;2022-10-16T01:45:30;24.20;49.60
75495;DHT22;64072;51.466;7.260;2022-10-16T01:47:57;24.20;49.60
75495;DHT22;64072;51.466;7.260;2022-10-16T01:50:24;24.20;49.60
75495;DHT22;64072;51.466;7.260;2022-10-16T01:52:52;24.20;49.60
75495;DHT22;64072;51.466;7.260;2022-10-16T01:55:25;24.20;49.60
75495;DHT22;64072;51.466;7.260;2022-10-16T01:57:53;24.20;49.60
75495;DHT22;64072;51.466;7.260;2022-10-16T02:00:21;24.20;49.60
75495;DHT22;64072;51.466;7.260;2022-10-16T02:02:49;24.20;49.60
75495;DHT22;64072;51.466;7.260;2022-10-16T02:05:28;24.20;49.60
75495;DHT22;64072;51.466;7.260;2022-10-16T02:07:54;24.20;49.60
75495;DHT22;64072;51.466;7.260;2022-10-16T02:10:20;24.20;49.60
75495;DHT22;64072;51.466;7.260;2022-10-16T02:12:52;24.20;49.60
75495;DHT22;64072;51.466;7.260;2022-10-16T02:15:20;24.20;49.60
75495;DHT22;64072;51.466;7.260;2022-10-16T02:17:46;24.20;49.50
75495;DHT22;64072;51.466;7.260;2022-10-16T02:20:11;24.20;49.60
75495;DHT22;64072;51.466;7.260;2022-10-16T02:22:46;24.20;49.50
75495;DHT22;64072;51.466;7.260;2022-10-16T02:25:30;24.20;49.60
75495;DHT22;64072;51.466;7.260;2022-10-16T02:28:19;24.10;49.50
75495;DHT22;64072;51.466;7.260;2022-10-16T02:30:51;24.10;49.50
75495;DHT22;64072;51.466;7.260;2022-10-16T02:33:19;24.10;49.60
75495;DHT22;64072;51.466;7.260;2022-10-16T02:35:47;24.10;49.60
75495;DHT22;64072;51.466;7.260;2022-10-16T02:38:15;24.10;49.60
75495;DHT22;64072;51.466;7.260;2022-10-16T02:40:42;24.10;49.60
75495;DHT22;64072;51.466;7.260;2022-10-16T02:43:08;24.10;49.70
75495;DHT22;64072;51.466;7.260;2022-10-16T02:45:34;24.10;49.70
75495;DHT22;64072;51.466;7.260;2022-10-16T02:47:59;24.10;49.70
75495;DHT22;64072;51.466;7.260;2022-10-16T02:50:25;24.00;49.80
75495;DHT22;64072;51.466;7.260;2022-10-16T02:52:51;24.00;49.80
75495;DHT22;64072;51.466;7.260;2022-10-16T02:55:17;24.00;49.90
75495;DHT22;64072;51.466;7.260;2022-10-16T02:57:43;24.00;49.90
75495;DHT22;64072;51.466;7.260;2022-10-16T03:00:13;24.00;49.80
75495;DHT22;64072;51.466;7.260;2022-10-16T03:02:39;24.00;49.80
75495;DHT22;64072;51.466;7.260;2022-10-16T03:05:05;24.00;49.80
75495;DHT22;64072;51.466;7.260;2022-10-16T03:07:31;24.00;49.80
75495;DHT22;64072;51.466;7.260;2022-10-16T03:09:56;24.00;49.70
75495;DHT22;64072;51.466;7.260;2022-10-16T03:12:25;24.00;49.70
75495;DHT22;64072;51.466;7.260;2022-10-16T03:14:51;24.00;49.70
75495;DHT22;64072;51.466;7.260;2022-10-16T03:17:17;24.10;49.60
75495;DHT22;64072;51.466;7.260;2022-10-16T03:19:42;24.10;49.60
75495;DHT22;64072;51.466;7.260;2022-10-16T03:22:08;24.10;49.60
75495;DHT22;64072;51.466;7.260;2022-10-16T03:24:33;24.10;49.60
75495;DHT22;64072;51.466;7.260;2022-10-16T03:26:59;24.10;49.50
75495;DHT22;64072;51.466;7.260;2022-10-16T03:29:25;24.10;49.50
75495;DHT22;64072;51.466;7.260;2022-10-16T03:31:51;24.10;49.40
75495;DHT22;64072;51.466;7.260;2022-10-16T03:34:17;24.10;49.40
75495;DHT22;64072;51.466;7.260;2022-10-16T03:36:42;24.10;49.40
75495;DHT22;64072;51.466;7.260;2022-10-16T03:39:08;24.10;49.30
75495;DHT22;64072;51.466;7.260;2022-10-16T03:41:33;24.10;49.30
75495;DHT22;64072;51.466;7.260;2022-10-16T03:43:59;24.20;49.30
75495;DHT22;64072;51.466;7.260;2022-10-16T03:46:24;24.20;49.20
75495;DHT22;64072;51.466;7.260;2022-10-16T03:48:50;24.20;49.20
75495;DHT22;64072;51.466;7.260;2022-10-16T03:51:15;24.20;49.20
75495;DHT22;64072;51.466;7.260;2022-10-16T03:53:41;24.20;49.20
75495;DHT22;64072;51.466;7.260;2022-10-16T03:56:06;24.20;49.20
75495;DHT22;64072;51.466;7.260;2022-10-16T03:58:32;24.20;49.20
75495;DHT22;64072;51.466;7.260;2022-10-16T04:00:58;24.20;49.10
75495;DHT22;64072;51.466;7.260;2022-10-16T04:03:23;24.20;49.20
75495;DHT22;64072;51.466;7.260;2022-10-16T04:05:49;24.20;49.20
75495;DHT22;64072;51.466;7.260;2022-10-16T04:08:15;24.20;49.20
75495;DHT22;64072;51.466;7.260;2022-10-16T04:10:42;24.20;49.20
75495;DHT22;64072;51.466;7.260;2022-10-16T04:13:08;24.20;49.10
75495;DHT22;64072;51.466;7.260;2022-10-16T04:15:34;24.20;49.20
75495;DHT22;64072;51.466;7.260;2022-10-16T04:18:00;24.20;49.20
75495;DHT22;64072;51.466;7.260;2022-10-16T04:20:25;24.20;49.20
75495;DHT22;64072;51.466;7.260;2022-10-16T04:22:51;24.20;49.10
75495;DHT22;64072;51.466;7.260;2022-10-16T04:25:16;24.10;49.10
75495;DHT22;64072;51.466;7.260;2022-10-16T04:27:42;24.10;49.20
75495;DHT22;64072;51.466;7.260;2022-10-16T04:30:08;24.20;49.10
75495;DHT22;64072;51.466;7.260;2022-10-16T04:32:34;24.10;49.10
75495;DHT22;64072;51.466;7.260;2022-10-16T04:34:59;24.10;49.20
75495;DHT22;64072;51.466;7.260;2022-10-16T04:37:26;24.10;49.20
75495;DHT22;64072;51.466;7.260;2022-10-16T04:39:53;24.10;49.20
75495;DHT22;64072;51.466;7.260;2022-10-16T04:42:19;24.10;49.20
75495;DHT22;64072;51.466;7.260;2022-10-16T04:44:44;24.10;49.30
75495;DHT22;64072;51.466;7.260;2022-10-16T04:47:10;24.10;49.30
75495;DHT22;64072;51.466;7.260;2022-10-16T04:49:35;24.00;49.30
75495;DHT22;64072;51.466;7.260;2022-10-16T04:52:01;24.00;49.40
75495;DHT22;64072;51.466;7.260;2022-10-16T04:54:27;24.00;49.40
75495;DHT22;64072;51.466;7.260;2022-10-16T04:56:52;24.00;49.40
75495;DHT22;64072;51.466;7.260;2022-10-16T04:59:19;24.00;49.40
75495;DHT22;64072;51.466;7.260;2022-10-16T05:01:44;24.00;49.40
75495;DHT22;64072;51.466;7.260;2022-10-16T05:04:10;24.00;49.40
75495;DHT22;64072;51.466;7.260;2022-10-16T05:06:37;24.00;49.40
75495;DHT22;64072;51.466;7.260;2022-10-16T05:09:04;24.00;49.40
75495;DHT22;64072;51.466;7.260;2022-10-16T05:11:30;24.00;49.30
75495;DHT22;64072;51.466;7.260;2022-10-16T05:13:55;24.00;49.40
75495;DHT22;64072;51.466;7.260;2022-10-16T05:16:21;24.00;49.30
75495;DHT22;64072;51.466;7.260;2022-10-16T05:18:46;24.00;49.30
75495;DHT22;64072;51.466;7.260;2022-10-16T05:21:12;24.00;49.30
75495;DHT22;64072;51.466;7.260;2022-10-16T05:23:37;24.00;49.30
75495;DHT22;64072;51.466;7.260;2022-10-16T05:26:03;24.00;49.20
75495;DHT22;64072;51.466;7.260;2022-10-16T05:28:29;24.00;49.20
75495;DHT22;64072;51.466;7.260;2022-10-16T05:30:56;24.00;49.20
75495;DHT22;64072;51.466;7.260;2022-10-16T05:33:24;24.10;49.10
75495;DHT22;64072;51.466;7.260;2022-10-16T05:35:50;24.10;49.10
75495;DHT22;64072;51.466;7.260;2022-10-16T05:38:19;24.10;49.10
75495;DHT22;64072;51.466;7.260;2022-10-16T05:40:51;24.10;49.10
75495;DHT22;64072;51.466;7.260;2022-10-16T05:43:17;24.10;49.10
75495;DHT22;64072;51.466;7.260;2022-10-16T05:45:42;24.10;49.00
75495;DHT22;64072;51.466;7.260;2022-10-16T05:48:08;24.10;49.00
75495;DHT22;64072;51.466;7.260;2022-10-16T05:50:33;24.10;49.00
75495;DHT22;64072;51.466;7.260;2022-10-16T05:52:59;24.10;49.00
75495;DHT22;64072;51.466;7.260;2022-10-16T05:55:25;24.20;48.90
75495;DHT22;64072;51.466;7.260;2022-10-16T05:57:50;24.10;48.80
75495;DHT22;64072;51.466;7.260;2022-10-16T06:00:19;24.10;48.90
75495;DHT22;64072;51.466;7.260;2022-10-16T06:02:44;24.10;48.90
75495;DHT22;64072;51.466;7.260;2022-10-16T06:05:10;24.10;48.90
75495;DHT22;64072;51.466;7.260;2022-10-16T06:07:36;24.10;48.90
75495;DHT22;64072;51.466;7.260;2022-10-16T06:10:03;24.10;48.90
75495;DHT22;64072;51.466;7.260;2022-10-16T06:12:29;24.10;48.90
75495;DHT22;64072;51.466;7.260;2022-10-16T06:14:54;24.10;48.90
75495;DHT22;64072;51.466;7.260;2022-10-16T06:17:20;24.10;48.90
75495;DHT22;64072;51.466;7.260;2022-10-16T06:19:46;24.10;48.80
75495;DHT22;64072;51.466;7.260;2022-10-16T06:22:11;24.20;48.80
75495;DHT22;64072;51.466;7.260;2022-10-16T06:24:37;24.20;48.70
75495;DHT22;64072;51.466;7.260;2022-10-16T06:27:04;24.40;48.20
75495;DHT22;64072;51.466;7.260;2022-10-16T06:29:30;24.40;48.20
75495;DHT22;64072;51.466;7.260;2022-10-16T06:31:55;24.40;48.20
75495;DHT22;64072;51.466;7.260;2022-10-16T06:34:21;24.40;48.20
75495;DHT22;64072;51.466;7.260;2022-10-16T06:36:46;24.30;48.40
75495;DHT22;64072;51.466;7.260;2022-10-16T06:39:12;24.30;48.40
75495;DHT22;64072;51.466;7.260;2022-10-16T06:41:37;24.20;48.60
75495;DHT22;64072;51.466;7.260;2022-10-16T06:44:06;24.20;48.60
75495;DHT22;64072;51.466;7.260;2022-10-16T06:46:33;24.20;48.70
75495;DHT22;64072;51.466;7.260;2022-10-16T06:48:58;24.10;48.70
75495;DHT22;64072;51.466;7.260;2022-10-16T06:51:27;24.10;48.70
75495;DHT22;64072;51.466;7.260;2022-10-16T06:53:55;24.10;48.70
75495;DHT22;64072;51.466;7.260;2022-10-16T06:56:26;24.10;48.70
75495;DHT22;64072;51.466;7.260;2022-10-16T06:58:53;24.10;48.70
75495;DHT22;64072;51.466;7.260;2022-10-16T07:01:20;24.10;48.80
75495;DHT22;64072;51.466;7.260;2022-10-16T07:03:47;24.10;48.80
75495;DHT22;64072;51.466;7.260;2022-10-16T07:06:18;24.10;48.80
75495;DHT22;64072;51.466;7.260;2022-10-16T07:08:45;24.10;48.80
75495;DHT22;64072;51.466;7.260;2022-10-16T07:11:16;24.10;48.80
75495;DHT22;64072;51.466;7.260;2022-10-16T07:13:43;24.10;48.70
75495;DHT22;64072;51.466;7.260;2022-10-16T07:16:12;24.10;48.70
75495;DHT22;64072;51.466;7.260;2022-10-16T07:18:38;24.10;48.70
75495;DHT22;64072;51.466;7.260;2022-10-16T07:21:08;24.20;48.70
75495;DHT22;64072;51.466;7.260;2022-10-16T07:23:34;24.20;48.60
75495;DHT22;64072;51.466;7.260;2022-10-16T07:26:00;24.20;48.60
75495;DHT22;64072;51.466;7.260;2022-10-16T07:28:26;24.20;48.60
75495;DHT22;64072;51.466;7.260;2022-10-16T07:30:51;24.20;48.50
75495;DHT22;64072;51.466;7.260;2022-10-16T07:33:17;24.20;48.50
75495;DHT22;64072;51.466;7.260;2022-10-16T07:35:51;24.20;48.50
75495;DHT22;64072;51.466;7.260;2022-10-16T07:38:17;24.20;48.40
75495;DHT22;64072;51.466;7.260;2022-10-16T07:40:43;24.20;48.50
75495;DHT22;64072;51.466;7.260;2022-10-16T07:43:09;24.20;48.40
75495;DHT22;64072;51.466;7.260;2022-10-16T07:45:34;24.20;48.40
75495;DHT22;64072;51.466;7.260;2022-10-16T07:48:00;24.20;48.40
75495;DHT22;64072;51.466;7.260;2022-10-16T07:50:25;24.20;48.40
75495;DHT22;64072;51.466;7.260;2022-10-16T07:52:51;24.20;48.40
75495;DHT22;64072;51.466;7.260;2022-10-16T07:55:17;24.30;48.40
75495;DHT22;64072;51.466;7.260;2022-10-16T07:57:43;24.30;48.40
75495;DHT22;64072;51.466;7.260;2022-10-16T08:00:09;24.30;48.40
75495;DHT22;64072;51.466;7.260;2022-10-16T08:02:41;24.30;48.40
75495;DHT22;64072;51.466;7.260;2022-10-16T08:05:07;24.30;48.40
75495;DHT22;64072;51.466;7.260;2022-10-16T08:07:33;24.30;48.30
75495;DHT22;64072;51.466;7.260;2022-10-16T08:09:59;24.30;48.40
75495;DHT22;64072;51.466;7.260;2022-10-16T08:12:25;24.30;48.30
75495;DHT22;64072;51.466;7.260;2022-10-16T08:14:51;24.30;48.40
75495;DHT22;64072;51.466;7.260;2022-10-16T08:17:16;24.30;48.40
75495;DHT22;64072;51.466;7.260;2022-10-16T08:19:46;24.30;48.40
75495;DHT22;64072;51.466;7.260;2022-10-16T08:22:13;24.30;48.40
75495;DHT22;64072;51.466;7.260;2022-10-16T08:24:39;24.30;48.40
75495;DHT22;64072;51.466;7.260;2022-10-16T08:27:04;24.30;48.40
75495;DHT22;64072;51.466;7.260;2022-10-16T08:29:30;24.30;48.40
75495;DHT22;64072;51.466;7.260;2022-10-16T08:31:56;24.30;48.40
75495;DHT22;64072;51.466;7.260;2022-10-16T08:34:22;24.30;48.40
75495;DHT22;64072;51.466;7.260;2022-10-16T08:36:47;24.40;48.40
75495;DHT22;64072;51.466;7.260;2022-10-16T08:39:13;24.30;48.40
75495;DHT22;64072;51.466;7.260;2022-10-16T08:42:22;24.30;48.40
75495;DHT22;64072;51.466;7.260;2022-10-16T08:47:59;24.40;48.40
75495;DHT22;64072;51.466;7.260;2022-10-16T08:50:30;24.40;48.30
75495;DHT22;64072;51.466;7.260;2022-10-16T08:52:57;24.30;48.30
75495;DHT22;64072;51.466;7.260;2022-10-16T08:55:41;24.30;48.30
75495;DHT22;64072;51.466;7.260;2022-10-16T08:58:16;24.40;48.40
75495;DHT22;64072;51.466;7.260;2022-10-16T09:00:46;24.30;48.30
75495;DHT22;64072;51.466;7.260;2022-10-16T09:06:24;24.30;48.40
75495;DHT22;64072;51.466;7.260;2022-10-16T09:09:02;24.30;48.40
75495;DHT22;64072;51.466;7.260;2022-10-16T09:25:32;24.40;48.30
75495;DHT22;64072;51.466;7.260;2022-10-16T09:27:59;24.40;48.30
75495;DHT22;64072;51.466;7.260;2022-10-16T09:30:27;24.40;48.30
75495;DHT22;64072;51.466;7.260;2022-10-16T09:32:55;24.40;48.30
75495;DHT22;64072;51.466;7.260;2022-10-16T09:35:35;24.40;48.30
75495;DHT22;64072;51.466;7.260;2022-10-16T09:38:01;24.40;48.20
75495;DHT22;64072;51.466;7.260;2022-10-16T09:43:01;24.40;48.10
75495;DHT22;64072;51.466;7.260;2022-10-16T09:45:27;24.40;48.20
75495;DHT22;64072;51.466;7.260;2022-10-16T09:47:53;24.50;48.20
75495;DHT22;64072;51.466;7.260;2022-10-16T09:50:27;24.40;48.10
75495;DHT22;64072;51.466;7.260;2022-10-16T09:53:10;24.50;48.20
75495;DHT22;64072;51.466;7.260;2022-10-16T09:55:36;24.50;48.10
75495;DHT22;64072;51.466;7.260;2022-10-16T09:58:13;24.50;48.10
75495;DHT22;64072;51.466;7.260;2022-10-16T10:00:41;24.50;48.10
75495;DHT22;64072;51.466;7.260;2022-10-16T10:03:11;24.50;48.00
75495;DHT22;64072;51.466;7.260;2022-10-16T10:05:39;24.50;48.00
75495;DHT22;64072;51.466;7.260;2022-10-16T10:08:05;24.50;48.00
75495;DHT22;64072;51.466;7.260;2022-10-16T10:10:37;24.50;48.00
75495;DHT22;64072;51.466;7.260;2022-10-16T10:13:14;24.50;48.00
75495;DHT22;64072;51.466;7.260;2022-10-16T10:15:41;24.60;47.90
75495;DHT22;64072;51.466;7.260;2022-10-16T10:18:18;24.60;48.00
75495;DHT22;64072;51.466;7.260;2022-10-16T10:20:45;24.50;47.90
75495;DHT22;64072;51.466;7.260;2022-10-16T10:23:25;24.60;47.90
75495;DHT22;64072;51.466;7.260;2022-10-16T10:26:11;24.60;47.90
75495;DHT22;64072;51.466;7.260;2022-10-16T10:33:54;24.50;47.90
75495;DHT22;64072;51.466;7.260;2022-10-16T10:36:36;24.50;47.90
75495;DHT22;64072;51.466;7.260;2022-10-16T10:39:33;24.50;47.90
75495;DHT22;64072;51.466;7.260;2022-10-16T10:42:13;24.50;47.90
75495;DHT22;64072;51.466;7.260;2022-10-16T10:47:44;24.50;48.00
75495;DHT22;64072;51.466;7.260;2022-10-16T10:50:19;24.50;47.90
75495;DHT22;64072;51.466;7.260;2022-10-16T10:55:43;24.50;47.80
75495;DHT22;64072;51.466;7.260;2022-10-16T10:58:15;24.50;47.90
75495;DHT22;64072;51.466;7.260;2022-10-16T11:00:54;24.50;47.90
75495;DHT22;64072;51.466;7.260;2022-10-16T11:03:51;24.60;47.90
75495;DHT22;64072;51.466;7.260;2022-10-16T11:06:28;24.60;47.80
75495;DHT22;64072;51.466;7.260;2022-10-16T11:11:36;24.60;47.90
75495;DHT22;64072;51.466;7.260;2022-10-16T11:14:17;24.60;47.80
75495;DHT22;64072;51.466;7.260;2022-10-16T11:17:14;24.60;47.80
75495;DHT22;64072;51.466;7.260;2022-10-16T11:19:49;24.60;47.70
75495;DHT22;64072;51.466;7.260;2022-10-16T11:22:18;24.60;47.70
75495;DHT22;64072;51.466;7.260;2022-10-16T11:24:51;24.70;47.70
75495;DHT22;64072;51.466;7.260;2022-10-16T11:27:25;24.70;47.60
75495;DHT22;64072;51.466;7.260;2022-10-16T11:29:59;24.70;47.60
75495;DHT22;64072;51.466;7.260;2022-10-16T11:32:47;24.70;47.60
75495;DHT22;64072;51.466;7.260;2022-10-16T11:35:21;24.70;47.50
75495;DHT22;64072;51.466;7.260;2022-10-16T11:37:49;24.80;47.40
75495;DHT22;64072;51.466;7.260;2022-10-16T11:40:32;24.80;47.50
75495;DHT22;64072;51.466;7.260;2022-10-16T11:43:17;24.80;47.40
75495;DHT22;64072;51.466;7.260;2022-10-16T11:45:54;24.80;47.30
75495;DHT22;64072;51.466;7.260;2022-10-16T11:50:53;24.80;47.30
75495;DHT22;64072;51.466;7.260;2022-10-16T11:56:06;24.80;47.40
75495;DHT22;64072;51.466;7.260;2022-10-16T11:58:46;24.80;47.30
75495;DHT22;64072;51.466;7.260;2022-10-16T12:01:24;24.80;47.30
75495;DHT22;64072;51.466;7.260;2022-10-16T12:04:11;24.80;47.30
75495;DHT22;64072;51.466;7.260;2022-10-16T12:06:56;24.90;47.20
75495;DHT22;64072;51.466;7.260;2022-10-16T12:09:28;24.90;47.20
75495;DHT22;64072;51.466;7.260;2022-10-16T12:11:55;24.90;47.20
75495;DHT22;64072;51.466;7.260;2022-10-16T12:14:22;24.90;47.20
75495;DHT22;64072;51.466;7.260;2022-10-16T12:17:22;24.90;47.20
75495;DHT22;64072;51.466;7.260;2022-10-16T12:22:59;25.00;47.10
75495;DHT22;64072;51.466;7.260;2022-10-16T12:25:39;25.00;47.10
75495;DHT22;64072;51.466;7.260;2022-10-16T12:30:41;25.00;47.00
75495;DHT22;64072;51.466;7.260;2022-10-16T12:33:28;25.00;47.10
75495;DHT22;64072;51.466;7.260;2022-10-16T12:35:54;25.00;47.00
75495;DHT22;64072;51.466;7.260;2022-10-16T12:41:07;25.00;47.00
75495;DHT22;64072;51.466;7.260;2022-10-16T12:43:46;24.90;47.10
75495;DHT22;64072;51.466;7.260;2022-10-16T12:48:40;24.90;47.20
75495;DHT22;64072;51.466;7.260;2022-10-16T12:51:34;24.90;47.30
75495;DHT22;64072;51.466;7.260;2022-10-16T12:54:11;25.00;47.20
75495;DHT22;64072;51.466;7.260;2022-10-16T13:10:57;24.90;47.20
75495;DHT22;64072;51.466;7.260;2022-10-16T13:19:08;24.90;47.20
75495;DHT22;64072;51.466;7.260;2022-10-16T13:29:38;25.00;47.20
75495;DHT22;64072;51.466;7.260;2022-10-16T13:32:10;25.00;47.10
75495;DHT22;64072;51.466;7.260;2022-10-16T13:34:46;25.00;47.10
75495;DHT22;64072;51.466;7.260;2022-10-16T13:37:24;25.00;47.10
75495;DHT22;64072;51.466;7.260;2022-10-16T13:39:50;25.00;47.00
75495;DHT22;64072;51.466;7.260;2022-10-16T13:42:29;25.00;47.00
75495;DHT22;64072;51.466;7.260;2022-10-16T13:44:56;25.00;47.10
75495;DHT22;64072;51.466;7.260;2022-10-16T13:47:27;25.00;47.10
75495;DHT22;64072;51.466;7.260;2022-10-16T13:50:00;25.00;47.10
75495;DHT22;64072;51.466;7.260;2022-10-16T13:52:26;25.00;47.10
75495;DHT22;64072;51.466;7.260;2022-10-16T13:54:52;25.00;47.00
75495;DHT22;64072;51.466;7.260;2022-10-16T13:57:17;25.00;46.90
75495;DHT22;64072;51.466;7.260;2022-10-16T13:59:43;25.00;46.90
75495;DHT22;64072;51.466;7.260;2022-10-16T14:04:53;25.10;46.80
75495;DHT22;64072;51.466;7.260;2022-10-16T14:07:30;25.10;46.80
75495;DHT22;64072;51.466;7.260;2022-10-16T14:10:01;25.10;46.80
75495;DHT22;64072;51.466;7.260;2022-10-16T14:12:27;25.10;46.90
75495;DHT22;64072;51.466;7.260;2022-10-16T14:14:54;25.10;46.80
75495;DHT22;64072;51.466;7.260;2022-10-16T14:17:24;25.10;46.80
75495;DHT22;64072;51.466;7.260;2022-10-16T14:19:53;25.10;46.80
75495;DHT22;64072;51.466;7.260;2022-10-16T14:22:28;25.10;46.80
75495;DHT22;64072;51.466;7.260;2022-10-16T14:24:55;25.10;46.70
75495;DHT22;64072;51.466;7.260;2022-10-16T14:27:30;25.10;46.70
75495;DHT22;64072;51.466;7.260;2022-10-16T14:30:12;25.10;46.70
75495;DHT22;64072;51.466;7.260;2022-10-16T14:32:41;25.10;46.70
75495;DHT22;64072;51.466;7.260;2022-10-16T14:35:26;25.10;46.70
75495;DHT22;64072;51.466;7.260;2022-10-16T14:37:53;25.10;46.70
75495;DHT22;64072;51.466;7.260;2022-10-16T14:40:22;25.10;46.60
75495;DHT22;64072;51.466;7.260;2022-10-16T14:42:48;25.10;46.60
75495;DHT22;64072;51.466;7.260;2022-10-16T14:45:19;25.10;46.70
75495;DHT22;64072;51.466;7.260;2022-10-16T14:47:51;25.10;46.70
75495;DHT22;64072;51.466;7.260;2022-10-16T14:50:17;25.00;46.90
75495;DHT22;64072;51.466;7.260;2022-10-16T14:52:43;25.00;47.10
75495;DHT22;64072;51.466;7.260;2022-10-16T14:55:09;25.00;47.20
75495;DHT22;64072;51.466;7.260;2022-10-16T14:57:35;25.00;47.20
75495;DHT22;64072;51.466;7.260;2022-10-16T15:00:03;25.00;47.20
75495;DHT22;64072;51.466;7.260;2022-10-16T15:02:34;25.00;47.10
75495;DHT22;64072;51.466;7.260;2022-10-16T15:07:43;25.00;46.90
75495;DHT22;64072;51.466;7.260;2022-10-16T15:10:09;25.00;47.00
75495;DHT22;64072;51.466;7.260;2022-10-16T15:12:35;25.00;46.90
75495;DHT22;64072;51.466;7.260;2022-10-16T15:15:01;25.00;46.90
75495;DHT22;64072;51.466;7.260;2022-10-16T15:17:26;25.00;46.90
75495;DHT22;64072;51.466;7.260;2022-10-16T15:19:52;25.00;46.90
75495;DHT22;64072;51.466;7.260;2022-10-16T15:22:18;25.00;46.90
75495;DHT22;64072;51.466;7.260;2022-10-16T15:24:43;25.00;46.90
75495;DHT22;64072;51.466;7.260;2022-10-16T15:27:09;25.00;46.90
75495;DHT22;64072;51.466;7.260;2022-10-16T15:29:34;25.00;46.90
75495;DHT22;64072;51.466;7.260;2022-10-16T15:32:00;25.00;46.80
75495;DHT22;64072;51.466;7.260;2022-10-16T15:34:26;25.00;46.80
75495;DHT22;64072;51.466;7.260;2022-10-16T15:36:51;25.00;46.80
75495;DHT22;64072;51.466;7.260;2022-10-16T15:39:19;25.00;46.70
75495;DHT22;64072;51.466;7.260;2022-10-16T15:41:46;25.00;46.70
75495;DHT22;64072;51.466;7.260;2022-10-16T15:44:19;25.00;46.70
75495;DHT22;64072;51.466;7.260;2022-10-16T15:46:46;25.00;46.70
75495;DHT22;64072;51.466;7.260;2022-10-16T15:49:12;25.00;46.70
75495;DHT22;64072;51.466;7.260;2022-10-16T15:51:39;25.00;46.70
75495;DHT22;64072;51.466;7.260;2022-10-16T15:54:05;25.00;46.70
75495;DHT22;64072;51.466;7.260;2022-10-16T15:56:31;24.90;46.70
75495;DHT22;64072;51.466;7.260;2022-10-16T15:58:59;24.90;46.70
75495;DHT22;64072;51.466;7.260;2022-10-16T16:01:25;24.90;46.80
75495;DHT22;64072;51.466;7.260;2022-10-16T16:03:54;24.90;46.80
75495;DHT22;64072;51.466;7.260;2022-10-16T16:06:19;24.90;46.80
75495;DHT22;64072;51.466;7.260;2022-10-16T16:08:45;24.90;46.80
75495;DHT22;64072;51.466;7.260;2022-10-16T16:11:13;24.90;46.80
75495;DHT22;64072;51.466;7.260;2022-10-16T16:13:40;24.90;46.80
75495;DHT22;64072;51.466;7.260;2022-10-16T16:16:12;24.90;46.70
75495;DHT22;64072;51.466;7.260;2022-10-16T16:18:39;24.90;46.80
75495;DHT22;64072;51.466;7.260;2022-10-16T16:21:05;24.90;46.70
75495;DHT22;64072;51.466;7.260;2022-10-16T16:23:31;24.90;46.80
75495;DHT22;64072;51.466;7.260;2022-10-16T16:26:06;24.90;46.70
75495;DHT22;64072;51.466;7.260;2022-10-16T16:28:32;24.90;46.70
75495;DHT22;64072;51.466;7.260;2022-10-16T16:30:58;24.90;46.70
75495;DHT22;64072;51.466;7.260;2022-10-16T16:33:24;24.90;46.70
75495;DHT22;64072;51.466;7.260;2022-10-16T16:35:49;24.90;46.80
75495;DHT22;64072;51.466;7.260;2022-10-16T16:38:15;24.90;46.80
75495;DHT22;64072;51.466;7.260;2022-10-16T16:40:40;24.90;46.80
75495;DHT22;64072;51.466;7.260;2022-10-16T16:43:06;24.90;46.80
75495;DHT22;64072;51.466;7.260;2022-10-16T16:45:35;24.90;46.70
75495;DHT22;64072;51.466;7.260;2022-10-16T16:48:00;24.90;46.80
75495;DHT22;64072;51.466;7.260;2022-10-16T16:50:26;24.90;46.80
75495;DHT22;64072;51.466;7.260;2022-10-16T16:52:51;24.80;46.80
75495;DHT22;64072;51.466;7.260;2022-10-16T16:55:17;24.80;46.80
75495;DHT22;64072;51.466;7.260;2022-10-16T16:57:43;24.80;46.80
75495;DHT22;64072;51.466;7.260;2022-10-16T17:00:09;24.80;46.90
75495;DHT22;64072;51.466;7.260;2022-10-16T17:02:34;24.80;46.80
75495;DHT22;64072;51.466;7.260;2022-10-16T17:05:00;24.80;46.90
75495;DHT22;64072;51.466;7.260;2022-10-16T17:07:26;24.80;46.90
75495;DHT22;64072;51.466;7.260;2022-10-16T17:09:52;24.80;46.90
75495;DHT22;64072;51.466;7.260;2022-10-16T17:12:18;24.80;46.90
75495;DHT22;64072;51.466;7.260;2022-10-16T17:14:43;24.80;46.90